Time;durP1;ratioP1;P1;durP2;ratioP2;P2;SDS_P1;SDS_P2;PMS_P1;PMS_P2;Temp;Humidity;BMP_temperature;BMP_pressure;BME280_temperature;BME280_humidity;BME280_pressure;Samples;Min_cycle;Max_cycle;Signal;HPM_P1;HPM_P2
2023/01/31 00:01:53;;;;;;;21.55;7.13;;;;;;;4.94;100.00;102347.00;4705057;30;20061;-65
2023/01/31 00:04:20;;;;;;;19.05;7.00;;;;;;;4.92;100.00;102344.47;4718903;30;20475;-64
2023/01/31 00:06:50;;;;;;;17.35;5.32;;;;;;;4.87;100.00;102341.53;4718033;30;20049;-63
2023/01/31 00:09:20;;;;;;;14.82;5.22;;;;;;;4.84;100.00;102344.63;4719590;30;20496;-65
2023/01/31 00:11:48;;;;;;;20.50;5.95;;;;;;;4.86;100.00;102350.66;4704355;30;20053;-65
2023/01/31 00:14:18;;;;;;;19.13;5.55;;;;;;;4.87;100.00;102363.13;4719491;30;20061;-65
2023/01/31 00:16:46;;;;;;;19.38;5.85;;;;;;;4.87;100.00;102360.41;4716900;30;20569;-64
2023/01/31 00:19:13;;;;;;;18.90;4.97;;;;;;;4.87;100.00;102357.72;4719542;30;20087;-64
2023/01/31 00:21:42;;;;;;;13.85;4.60;;;;;;;4.89;100.00;102370.00;4718763;30;20498;-63
2023/01/31 00:24:14;;;;;;;20.67;5.57;;;;;;;4.88;100.00;102367.47;4704495;30;20053;-63
2023/01/31 00:26:41;;;;;;;20.40;5.15;;;;;;;4.85;99.64;102367.88;4718168;30;20053;-65
2023/01/31 00:29:10;;;;;;;16.13;4.88;;;;;;;4.83;99.78;102362.66;4692361;30;20057;-64
2023/01/31 00:31:37;;;;;;;16.45;5.22;;;;;;;4.83;99.95;102368.06;4719041;30;20060;-61
2023/01/31 00:34:06;;;;;;;18.23;5.45;;;;;;;4.85;99.83;102374.09;4736338;30;20049;-62
2023/01/31 00:36:34;;;;;;;18.55;5.32;;;;;;;4.86;99.60;102372.28;4724774;30;20079;-66
2023/01/31 00:39:05;;;;;;;19.25;4.93;;;;;;;4.85;99.62;102373.28;4700461;30;20060;-66
2023/01/31 00:41:34;;;;;;;15.48;4.93;;;;;;;4.85;99.79;102367.88;4734794;30;20061;-62
2023/01/31 00:44:05;;;;;;;19.58;5.38;;;;;;;4.87;99.34;102365.81;4694815;30;20126;-65
2023/01/31 00:46:33;;;;;;;18.45;5.32;;;;;;;4.87;99.24;102357.72;4697206;30;20515;-64
2023/01/31 00:49:03;;;;;;;20.33;5.38;;;;;;;4.86;98.98;102356.06;4683776;30;20046;-64
2023/01/31 00:51:30;;;;;;;17.40;5.00;;;;;;;4.86;99.27;102353.38;4683330;30;20109;-64
2023/01/31 00:53:58;;;;;;;16.92;4.72;;;;;;;4.84;99.06;102345.44;4684645;30;20077;-65
2023/01/31 00:56:26;;;;;;;15.10;4.72;;;;;;;4.84;99.04;102350.00;4697323;30;20397;-64
2023/01/31 00:58:54;;;;;;;16.60;5.07;;;;;;;4.82;99.34;102352.91;4685822;30;20054;-64
2023/01/31 01:01:25;;;;;;;17.13;4.70;;;;;;;4.82;99.39;102347.50;4683279;30;20058;-64
2023/01/31 01:03:54;;;;;;;16.48;5.22;;;;;;;4.80;99.15;102354.13;4683429;30;20068;-64
2023/01/31 01:06:22;;;;;;;15.70;4.50;;;;;;;4.80;99.28;102343.31;4698096;30;20408;-64
2023/01/31 01:08:51;;;;;;;15.13;4.80;;;;;;;4.80;99.57;102346.00;4702201;30;20056;-66
2023/01/31 01:11:30;;;;;;;14.95;4.32;;;;;;;4.79;99.71;102344.34;4696443;30;20073;-65
2023/01/31 01:13:59;;;;;;;19.17;5.20;;;;;;;4.77;99.78;102332.91;4707353;30;20081;-65
2023/01/31 01:16:33;;;;;;;17.38;4.95;;;;;;;4.78;99.82;102330.00;4696027;30;20050;-64
2023/01/31 01:19:08;;;;;;;14.38;4.30;;;;;;;4.78;99.85;102331.88;4695809;30;20056;-63
2023/01/31 01:21:38;;;;;;;17.98;5.28;;;;;;;4.77;100.00;102322.09;4705339;30;20062;-64
2023/01/31 01:24:15;;;;;;;16.50;5.28;;;;;;;4.76;99.87;102320.41;4690591;30;20054;-65
2023/01/31 01:26:44;;;;;;;20.38;5.60;;;;;;;4.73;100.00;102316.25;4686803;30;20576;-63
2023/01/31 01:29:12;;;;;;;18.33;5.47;;;;;;;4.72;100.00;102313.75;4684176;30;20085;-64
2023/01/31 01:31:40;;;;;;;12.65;3.97;;;;;;;4.73;100.00;102316.25;4683632;30;20562;-64
2023/01/31 01:34:13;;;;;;;18.80;5.47;;;;;;;4.75;100.00;102310.66;4684075;30;20057;-64
2023/01/31 01:36:41;;;;;;;20.63;5.15;;;;;;;4.74;100.00;102317.94;4684022;30;20137;-62
2023/01/31 01:39:15;;;;;;;16.00;4.70;;;;;;;4.76;100.00;102310.44;4694228;30;20050;-64
2023/01/31 01:41:43;;;;;;;19.10;5.60;;;;;;;4.79;100.00;102317.34;4697189;30;20497;-63
2023/01/31 01:44:45;;;;;;;19.42;5.85;;;;;;;4.80;100.00;102311.75;4699601;30;20528;-63
2023/01/31 01:47:51;;;;;;;18.70;4.90;;;;;;;4.80;100.00;102310.91;4683035;30;20096;-64
2023/01/31 01:50:25;;;;;;;15.85;5.07;;;;;;;4.79;100.00;102309.25;4671153;30;20061;-64
2023/01/31 01:53:00;;;;;;;18.38;5.07;;;;;;;4.79;100.00;102301.97;4697026;30;20138;-64
2023/01/31 01:55:39;;;;;;;16.88;5.38;;;;;;;4.80;100.00;102306.34;4692639;30;20492;-63
2023/01/31 01:58:14;;;;;;;18.08;5.28;;;;;;;4.79;100.00;102309.25;4637030;30;20153;-64
2023/01/31 02:00:43;;;;;;;15.02;5.43;;;;;;;4.78;100.00;102304.88;4684217;30;20082;-64
2023/01/31 02:03:11;;;;;;;18.80;5.50;;;;;;;4.77;100.00;102295.94;4681801;30;20054;-64
2023/01/31 02:05:53;;;;;;;16.45;5.30;;;;;;;4.76;100.00;102304.22;4683282;30;20141;-63
2023/01/31 02:08:23;;;;;;;20.80;5.95;;;;;;;4.77;100.00;102300.50;4682055;30;20089;-65
2023/01/31 02:11:02;;;;;;;23.05;5.90;;;;;;;4.76;100.00;102309.63;4681120;30;20077;-63
2023/01/31 02:13:31;;;;;;;19.25;5.30;;;;;;;4.78;100.00;102312.97;4682857;30;20046;-64
2023/01/31 02:15:58;;;;;;;16.83;5.38;;;;;;;4.78;100.00;102318.38;4683592;30;20064;-65
2023/01/31 02:18:29;;;;;;;15.75;5.05;;;;;;;4.79;100.00;102314.66;4683583;30;20058;-64
2023/01/31 02:21:34;;;;;;;20.15;5.43;;;;;;;4.79;100.00;102320.06;4682000;30;20058;-63
2023/01/31 02:24:29;;;;;;;19.52;5.85;;;;;;;4.80;100.00;102321.72;4675354;30;20066;-63
2023/01/31 02:27:14;;;;;;;16.23;4.87;;;;;;;4.80;100.00;102333.34;4667343;30;20054;-62
2023/01/31 02:30:11;;;;;;;16.48;5.15;;;;;;;4.80;100.00;102322.53;4682169;30;20058;-62
2023/01/31 02:32:47;;;;;;;19.08;5.78;;;;;;;4.77;100.00;102333.72;4691795;30;20074;-63
2023/01/31 02:35:23;;;;;;;21.45;6.22;;;;;;;4.77;100.00;102322.94;4692403;30;20050;-63
2023/01/31 02:38:07;;;;;;;17.70;5.80;;;;;;;4.78;100.00;102329.16;4696326;30;20062;-64
2023/01/31 02:40:44;;;;;;;21.70;6.00;;;;;;;4.78;100.00;102324.59;4664712;30;20055;-64
2023/01/31 02:43:26;;;;;;;20.70;6.00;;;;;;;4.79;100.00;102326.28;4685036;30;20524;-65
2023/01/31 02:46:07;;;;;;;19.50;5.57;;;;;;;4.82;100.00;102322.38;4681904;30;20049;-64
2023/01/31 02:48:57;;;;;;;18.50;5.40;;;;;;;4.83;100.00;102307.81;4695993;30;20122;-63
2023/01/31 02:51:31;;;;;;;18.35;5.93;;;;;;;4.82;100.00;102306.97;4696340;30;20473;-64
2023/01/31 02:54:16;;;;;;;20.73;6.32;;;;;;;4.82;100.00;102311.56;4680500;30;20062;-64
2023/01/31 02:56:46;;;;;;;17.35;5.90;;;;;;;4.83;100.00;102310.53;4696022;30;20183;-63
2023/01/31 02:59:25;;;;;;;20.23;6.35;;;;;;;4.83;100.00;102305.13;4682202;30;20057;-64
2023/01/31 03:02:00;;;;;;;21.45;6.03;;;;;;;4.83;100.00;102305.13;4681809;30;20050;-63
2023/01/31 03:04:35;;;;;;;20.88;6.30;;;;;;;4.82;100.00;102306.97;4694320;30;20069;-64
2023/01/31 03:07:32;;;;;;;17.88;6.05;;;;;;;4.83;100.00;102300.53;4681858;30;20054;-65
2023/01/31 03:10:12;;;;;;;22.55;6.55;;;;;;;4.84;100.00;102290.59;4664072;30;20141;-65
2023/01/31 03:12:52;;;;;;;19.35;6.35;;;;;;;4.82;100.00;102295.34;4665672;30;20043;-65
2023/01/31 03:15:24;;;;;;;15.63;5.40;;;;;;;4.83;100.00;102289.75;4679173;30;20058;-64
2023/01/31 03:18:10;;;;;;;18.70;6.30;;;;;;;4.83;100.00;102294.31;4678599;30;20105;-64
2023/01/31 03:20:49;;;;;;;18.67;6.20;;;;;;;4.86;100.00;102293.94;4679020;30;20062;-62
2023/01/31 03:23:19;;;;;;;15.70;5.80;;;;;;;4.88;100.00;102291.88;4680094;30;20058;-64
2023/01/31 03:25:49;;;;;;;21.75;7.38;;;;;;;4.84;100.00;102286.03;4699458;30;20096;-65
2023/01/31 03:28:22;;;;;;;24.08;7.78;;;;;;;4.84;100.00;102290.59;4681736;30;20137;-65
2023/01/31 03:31:36;;;;;;;23.95;7.22;;;;;;;4.82;100.00;102287.25;4667828;30;20054;-63
2023/01/31 03:34:10;;;;;;;20.65;6.43;;;;;;;4.78;100.00;102289.50;4684174;30;20065;-65
2023/01/31 03:36:58;;;;;;;20.55;6.70;;;;;;;4.80;100.00;102275.81;4699248;30;20466;-65
2023/01/31 03:39:56;;;;;;;21.80;7.25;;;;;;;4.78;100.00;102269.75;4686073;30;20472;-64
2023/01/31 03:42:42;;;;;;;20.23;7.45;;;;;;;4.77;100.00;102270.81;4672620;30;20439;-64
2023/01/31 03:45:19;;;;;;;23.33;7.63;;;;;;;4.76;100.00;102269.94;4713307;30;20053;-65
2023/01/31 03:47:49;;;;;;;17.65;7.15;;;;;;;4.76;100.00;102266.41;4704810;30;20060;-64
2023/01/31 03:50:27;;;;;;;19.00;7.20;;;;;;;4.74;100.00;102265.78;4719664;30;20088;-64
2023/01/31 03:53:03;;;;;;;23.08;7.88;;;;;;;4.75;100.00;102254.78;4733118;30;20045;-64
2023/01/31 03:55:47;;;;;;;23.95;7.90;;;;;;;4.76;100.00;102252.91;4722331;30;20053;-63
2023/01/31 03:58:18;;;;;;;24.95;8.38;;;;;;;4.72;100.00;102243.56;4713395;30;20076;-65
2023/01/31 04:00:48;;;;;;;25.13;7.55;;;;;;;4.70;100.00;102247.25;4710168;30;20056;-64
2023/01/31 04:03:41;;;;;;;23.50;7.70;;;;;;;4.70;100.00;102252.66;4719322;30;20082;-64
2023/01/31 04:06:09;;;;;;;27.67;8.63;;;;;;;4.72;100.00;102248.94;4705447;30;20057;-63
2023/01/31 04:08:39;;;;;;;25.58;8.65;;;;;;;4.71;100.00;102248.09;4702062;30;20148;-64
2023/01/31 04:11:11;;;;;;;20.25;7.63;;;;;;;4.69;100.00;102250.19;4687056;30;20053;-65
2023/01/31 04:13:41;;;;;;;23.60;8.38;;;;;;;4.67;100.00;102252.22;4704896;30;20057;-64
2023/01/31 04:16:09;;;;;;;24.60;8.40;;;;;;;4.68;100.00;102254.72;4720263;30;20062;-65
2023/01/31 04:18:36;;;;;;;24.67;7.70;;;;;;;4.70;100.00;102247.25;4716574;30;20072;-63
2023/01/31 04:21:05;;;;;;;22.35;8.43;;;;;;;4.70;100.00;102247.25;4706118;30;20053;-65
2023/01/31 04:23:33;;;;;;;23.98;7.82;;;;;;;4.68;100.00;102254.72;4721900;30;20049;-63
2023/01/31 04:26:01;;;;;;;23.30;7.85;;;;;;;4.67;100.00;102250.34;4719395;30;20053;-62
2023/01/31 04:28:28;;;;;;;22.17;8.40;;;;;;;4.68;100.00;102238.53;4733825;30;20079;-64
2023/01/31 04:30:56;;;;;;;22.23;8.07;;;;;;;4.67;100.00;102231.47;4720217;30;20537;-63
2023/01/31 04:33:24;;;;;;;23.85;8.32;;;;;;;4.68;100.00;102243.09;4704113;30;20057;-63
2023/01/31 04:35:52;;;;;;;23.83;8.13;;;;;;;4.67;100.00;102247.66;4719365;30;20053;-63
2023/01/31 04:38:20;;;;;;;26.10;8.82;;;;;;;4.66;100.00;102243.28;4718543;30;20115;-62
2023/01/31 04:40:47;;;;;;;26.38;9.10;;;;;;;4.66;100.00;102245.97;4719497;30;20415;-63
2023/01/31 04:43:15;;;;;;;20.88;7.75;;;;;;;4.64;100.00;102242.66;4717660;30;20088;-64
2023/01/31 04:45:43;;;;;;;28.88;9.65;;;;;;;4.63;100.00;102235.56;4719493;30;20193;-64
2023/01/31 04:48:12;;;;;;;26.33;8.52;;;;;;;4.60;100.00;102238.66;4718301;30;20056;-64
2023/01/31 04:50:39;;;;;;;23.23;8.00;;;;;;;4.60;100.00;102229.75;4704030;30;20059;-63
2023/01/31 04:53:07;;;;;;;22.80;8.80;;;;;;;4.58;100.00;102216.41;4717753;30;20430;-64
2023/01/31 04:55:36;;;;;;;24.52;8.18;;;;;;;4.57;100.00;102217.47;4701999;30;20079;-64
2023/01/31 04:58:03;;;;;;;21.40;7.90;;;;;;;4.55;100.00;102216.00;4702459;30;20053;-65
2023/01/31 05:00:33;;;;;;;19.92;8.02;;;;;;;4.58;100.00;102210.19;4719024;30;20073;-62
2023/01/31 05:03:01;;;;;;;20.92;7.85;;;;;;;4.59;100.00;102209.97;4715495;30;20053;-64
2023/01/31 05:05:29;;;;;;;22.40;8.25;;;;;;;4.58;100.00;102211.03;4716057;30;20135;-64
2023/01/31 05:07:57;;;;;;;23.83;8.27;;;;;;;4.58;100.00;102205.63;4715730;30;20118;-65
2023/01/31 05:10:25;;;;;;;24.38;8.77;;;;;;;4.57;100.00;102208.50;4715915;30;20064;-64
2023/01/31 05:12:52;;;;;;;26.63;8.77;;;;;;;4.58;100.00;102215.59;4701959;30;20551;-64
2023/01/31 05:15:21;;;;;;;23.25;8.65;;;;;;;4.58;100.00;102204.78;4702642;30;20511;-63
2023/01/31 05:17:53;;;;;;;29.20;9.60;;;;;;;4.59;100.00;102207.28;4713405;30;20057;-65
2023/01/31 05:20:20;;;;;;;26.88;9.15;;;;;;;4.58;100.00;102197.53;4700925;30;20088;-63
2023/01/31 05:22:49;;;;;;;22.08;8.07;;;;;;;4.58;100.00;102205.63;4716433;30;20065;-65
2023/01/31 05:25:17;;;;;;;24.17;8.25;;;;;;;4.58;100.00;102194.81;4703078;30;20144;-65
2023/01/31 05:27:45;;;;;;;29.75;8.90;;;;;;;4.60;100.00;102198.16;4716748;30;20128;-64
2023/01/31 05:30:13;;;;;;;22.58;7.63;;;;;;;4.61;100.00;102199.81;4718288;30;20053;-63
2023/01/31 05:32:44;;;;;;;30.88;9.02;;;;;;;4.64;100.00;102199.47;4702644;30;20396;-64
2023/01/31 05:35:12;;;;;;;23.73;8.45;;;;;;;4.64;100.00;102198.59;4718125;30;20081;-64
2023/01/31 05:37:43;;;;;;;21.50;8.38;;;;;;;4.62;100.00;102193.41;4713597;30;20049;-63
2023/01/31 05:40:16;;;;;;;23.92;8.57;;;;;;;4.60;100.00;102191.94;4710020;30;20076;-64
2023/01/31 05:42:43;;;;;;;21.60;8.15;;;;;;;4.59;100.00;102190.25;4699546;30;20063;-64
2023/01/31 05:45:14;;;;;;;23.13;8.00;;;;;;;4.58;100.00;102175.94;4700969;30;20091;-64
2023/01/31 05:47:44;;;;;;;24.50;8.88;;;;;;;4.57;100.00;102173.41;4701409;30;20132;-66
2023/01/31 05:50:12;;;;;;;23.90;7.95;;;;;;;4.59;100.00;102179.47;4716890;30;20049;-64
2023/01/31 05:52:40;;;;;;;28.65;8.90;;;;;;;4.58;100.00;102169.72;4718439;30;20087;-65
2023/01/31 05:55:08;;;;;;;26.35;8.90;;;;;;;4.57;100.00;102166.19;4716722;30;20053;-65
2023/01/31 05:57:36;;;;;;;21.48;8.93;;;;;;;4.58;100.00;102173.22;4717759;30;20095;-65
2023/01/31 06:00:04;;;;;;;23.25;8.18;;;;;;;4.60;100.00;102171.19;4714960;30;20072;-65
2023/01/31 06:02:38;;;;;;;25.25;8.45;;;;;;;4.57;100.00;102163.47;4702931;30;20057;-65
2023/01/31 06:05:06;;;;;;;21.15;7.28;;;;;;;4.56;100.00;102172.59;4718009;30;20506;-65
2023/01/31 06:07:34;;;;;;;19.40;8.00;;;;;;;4.59;100.00;102174.88;4717708;30;20132;-63
2023/01/31 06:10:02;;;;;;;24.77;8.18;;;;;;;4.57;100.00;102178.81;4715858;30;20124;-64
2023/01/31 06:12:30;;;;;;;23.45;8.38;;;;;;;4.58;100.00;102180.50;4699482;30;20053;-64
2023/01/31 06:14:58;;;;;;;24.67;8.50;;;;;;;4.59;100.00;102180.28;4717602;30;20057;-64
2023/01/31 06:17:26;;;;;;;22.85;7.78;;;;;;;4.60;100.00;102181.97;4719257;30;20431;-65
2023/01/31 06:19:56;;;;;;;23.70;8.00;;;;;;;4.59;100.00;102177.59;4702356;30;20071;-65
2023/01/31 06:22:24;;;;;;;21.90;7.32;;;;;;;4.62;100.00;102173.69;4717931;30;20061;-63
2023/01/31 06:24:52;;;;;;;19.83;7.78;;;;;;;4.58;100.00;102178.63;4704068;30;20161;-64
2023/01/31 06:27:19;;;;;;;24.95;8.32;;;;;;;4.60;100.00;102178.44;4720070;30;20499;-64
2023/01/31 06:29:47;;;;;;;23.50;8.35;;;;;;;4.57;100.00;102178.81;4718000;30;20061;-65
2023/01/31 06:32:15;;;;;;;26.67;8.10;;;;;;;4.54;100.00;102176.50;4710701;30;20053;-64
2023/01/31 06:34:42;;;;;;;27.85;8.48;;;;;;;4.53;100.00;102170.28;4721402;30;20057;-65
2023/01/31 06:37:10;;;;;;;22.65;7.90;;;;;;;4.54;100.00;102165.72;4730610;30;20128;-64
2023/01/31 06:39:44;;;;;;;26.08;8.48;;;;;;;4.53;100.00;102169.47;4730915;30;20053;-66
2023/01/31 06:42:11;;;;;;;17.23;6.65;;;;;;;4.56;100.00;102156.41;4725643;30;20057;-63
2023/01/31 06:44:39;;;;;;;20.98;7.70;;;;;;;4.69;100.00;102153.81;4716503;30;20092;-63
2023/01/31 06:47:07;;;;;;;21.13;7.30;;;;;;;4.65;100.00;102130.94;4718739;30;20570;-63
2023/01/31 06:49:34;;;;;;;24.90;8.10;;;;;;;4.61;100.00;102128.81;4719408;30;20053;-64
2023/01/31 06:52:02;;;;;;;21.63;6.65;;;;;;;4.80;100.00;102138.09;4717659;30;20063;-63
2023/01/31 06:54:30;;;;;;;24.05;8.02;;;;;;;4.69;100.00;102143.03;4718029;30;20136;-65
2023/01/31 06:56:58;;;;;;;21.30;8.30;;;;;;;4.60;100.00;102149.59;4717673;30;20061;-63
2023/01/31 06:59:25;;;;;;;21.80;7.30;;;;;;;4.60;100.00;102160.38;4720293;30;20057;-64
2023/01/31 07:01:53;;;;;;;18.38;7.43;;;;;;;4.59;100.00;102163.25;4720772;30;20499;-65
2023/01/31 07:04:22;;;;;;;23.52;6.47;;;;;;;4.74;100.00;102149.66;4107657;30;10000738;-66
2023/01/31 07:06:51;;;;;;;23.67;7.95;;;;;;;4.69;100.00;102147.59;4717743;30;20259;-65
2023/01/31 07:09:28;;;;;;;23.50;8.40;;;;;;;4.62;100.00;102136.72;4719057;30;20118;-65
2023/01/31 07:11:56;;;;;;;23.00;7.93;;;;;;;4.60;100.00;102137.97;4716011;30;20053;-65
2023/01/31 07:14:24;;;;;;;22.30;7.95;;;;;;;4.54;100.00;102144.94;4716741;30;20608;-64
2023/01/31 07:16:52;;;;;;;23.98;7.22;;;;;;;4.54;100.00;102144.13;4716735;30;20064;-65
2023/01/31 07:19:19;;;;;;;23.38;7.93;;;;;;;4.54;100.00;102136.84;4702321;30;20063;-65
2023/01/31 07:21:48;;;;;;;20.30;7.18;;;;;;;4.55;100.00;102130.44;4717133;30;20144;-64
2023/01/31 07:24:16;;;;;;;16.67;6.68;;;;;;;4.66;100.00;102115.56;4701451;30;20070;-65
2023/01/31 07:26:43;;;;;;;27.15;8.75;;;;;;;4.68;100.00;102114.34;4717952;30;20063;-64
2023/01/31 07:29:12;;;;;;;21.58;7.82;;;;;;;4.76;100.00;102120.63;4716287;30;20067;-65
2023/01/31 07:31:40;;;;;;;21.60;6.90;;;;;;;4.78;100.00;102113.16;4716203;30;20067;-64
2023/01/31 07:34:07;;;;;;;21.55;7.90;;;;;;;4.76;100.00;102099.00;4714776;30;20739;-63
2023/01/31 07:36:35;;;;;;;22.65;7.70;;;;;;;5.02;100.00;102115.38;4716813;30;20068;-64
2023/01/31 07:39:03;;;;;;;21.95;6.63;;;;;;;4.87;100.00;102120.06;4717324;30;20053;-65
2023/01/31 07:41:30;;;;;;;16.80;5.22;;;;;;;4.82;100.00;102115.25;4701338;30;20053;-64
2023/01/31 07:43:58;;;;;;;20.63;7.00;;;;;;;4.82;100.00;102123.38;4714826;30;20061;-64
2023/01/31 07:46:26;;;;;;;17.77;7.13;;;;;;;4.85;100.00;102116.72;4700285;30;20080;-62
2023/01/31 07:48:55;;;;;;;21.85;7.97;;;;;;;4.78;100.00;102113.16;4717308;30;20154;-64
2023/01/31 07:51:22;;;;;;;22.27;7.55;;;;;;;4.83;100.00;102102.59;4715919;30;20057;-65
2023/01/31 07:53:50;;;;;;;19.65;7.30;;;;;;;4.84;100.00;102109.69;4717510;30;20065;-64
2023/01/31 07:56:20;;;;;;;19.67;6.63;;;;;;;4.82;100.00;102096.38;4716375;30;20088;-66
2023/01/31 07:58:49;;;;;;;18.50;6.43;;;;;;;4.87;100.00;102096.59;4702759;30;20060;-64
2023/01/31 08:04:11;;;;;;;15.23;6.43;;;;;;;4.88;100.00;102086.63;4716394;30;20082;-65
2023/01/31 08:06:49;;;;;;;14.80;6.18;;;;;;;4.88;100.00;102081.22;4716246;30;20134;-64
2023/01/31 08:09:17;;;;;;;18.25;7.03;;;;;;;4.84;100.00;102079.97;4719901;30;20064;-63
2023/01/31 08:11:45;;;;;;;17.35;6.60;;;;;;;4.89;100.00;102088.31;4713570;30;20131;-62
2023/01/31 08:14:13;;;;;;;19.67;7.32;;;;;;;4.87;100.00;102084.97;4718873;30;20060;-62
2023/01/31 08:16:40;;;;;;;20.10;6.90;;;;;;;4.86;100.00;102088.72;4712326;30;20054;-65
2023/01/31 08:19:09;;;;;;;19.50;6.43;;;;;;;4.98;100.00;102076.31;4717997;30;20057;-64
2023/01/31 08:21:37;;;;;;;25.20;7.30;;;;;;;4.97;100.00;102085.44;4686180;30;20077;-65
2023/01/31 08:24:05;;;;;;;20.90;7.35;;;;;;;4.94;100.00;102083.13;4699479;30;20057;-64
2023/01/31 08:26:33;;;;;;;20.15;6.93;;;;;;;4.96;100.00;102081.06;4701317;30;20096;-65
2023/01/31 08:29:02;;;;;;;24.58;8.07;;;;;;;5.02;100.00;102077.56;4716496;30;20503;-64
2023/01/31 08:31:30;;;;;;;19.23;6.60;;;;;;;4.97;100.00;102069.22;4701357;30;20333;-64
2023/01/31 08:33:58;;;;;;;20.35;7.47;;;;;;;4.90;100.00;102073.75;4715675;30;20524;-63
2023/01/31 08:36:30;;;;;;;21.73;7.72;;;;;;;4.92;100.00;102071.69;4700875;30;20554;-64
2023/01/31 08:38:58;;;;;;;23.25;7.65;;;;;;;4.90;100.00;102062.97;4716133;30;20087;-61
2023/01/31 08:41:27;;;;;;;27.08;8.23;;;;;;;4.97;100.00;102069.22;4685735;30;20073;-65
2023/01/31 08:43:56;;;;;;;21.95;7.25;;;;;;;4.93;100.00;102062.59;4696611;30;20116;-66
2023/01/31 08:46:28;;;;;;;31.50;9.52;;;;;;;5.01;100.00;102064.28;4701597;30;20049;-65
2023/01/31 08:48:59;;;;;;;20.92;6.43;;;;;;;4.97;100.00;102053.03;4697473;30;20081;-65
2023/01/31 08:51:26;;;;;;;27.42;7.15;;;;;;;4.99;100.00;102050.97;4711788;30;20053;-67
2023/01/31 08:53:54;;;;;;;20.13;6.40;;;;;;;4.94;100.00;102047.19;4697075;30;20056;-65
2023/01/31 08:56:24;;;;;;;21.02;7.13;;;;;;;4.85;100.00;102051.91;4707057;30;20053;-66
2023/01/31 08:58:53;;;;;;;20.38;7.20;;;;;;;4.84;100.00;102042.16;4718358;30;20527;-64
2023/01/31 09:01:22;;;;;;;18.17;6.75;;;;;;;4.84;100.00;102036.78;4704670;30;20450;-64
2023/01/31 09:03:55;;;;;;;21.25;7.05;;;;;;;4.89;100.00;102039.69;4721845;30;20119;-64
2023/01/31 09:06:25;;;;;;;22.50;7.45;;;;;;;4.99;100.00;102040.16;4704620;30;20056;-63
2023/01/31 09:08:55;;;;;;;24.23;7.55;;;;;;;5.05;100.00;102041.22;4700849;30;20049;-63
2023/01/31 09:11:23;;;;;;;32.08;9.63;;;;;;;5.18;100.00;102027.78;4704144;30;20060;-65
2023/01/31 09:13:51;;;;;;;20.30;7.05;;;;;;;5.13;100.00;102022.13;4688598;30;20085;-64
2023/01/31 09:16:19;;;;;;;20.65;7.30;;;;;;;5.16;100.00;102026.31;4690759;30;20057;-65
2023/01/31 09:18:47;;;;;;;21.92;7.13;;;;;;;5.15;100.00;102027.31;4722813;30;20080;-68
2023/01/31 09:21:18;;;;;;;21.83;6.35;;;;;;;5.34;100.00;102003.09;4688076;30;20144;-65
2023/01/31 09:23:46;;;;;;;23.75;6.38;;;;;;;5.45;100.00;102011.63;4703648;30;20061;-65
2023/01/31 09:26:16;;;;;;;22.92;7.82;;;;;;;5.48;100.00;102013.91;4719202;30;20125;-64
2023/01/31 09:28:44;;;;;;;21.27;7.15;;;;;;;5.46;100.00;102013.28;4719007;30;20107;-66
2023/01/31 09:31:14;;;;;;;19.10;6.65;;;;;;;5.41;100.00;102038.25;4703441;30;20570;-66
2023/01/31 09:33:43;;;;;;;23.60;7.13;;;;;;;5.43;100.00;102021.81;4713664;30;20054;-66
2023/01/31 09:36:22;;;;;;;17.23;5.88;;;;;;;5.38;100.00;102019.72;4688897;30;20458;-66
2023/01/31 09:38:55;;;;;;;20.27;6.47;;;;;;;5.41;100.00;102023.88;4703681;30;20471;-69
2023/01/31 09:41:29;;;;;;;22.45;7.75;;;;;;;5.49;100.00;102000.22;4700308;30;20128;-63
2023/01/31 09:44:22;;;;;;;19.65;6.32;;;;;;;5.45;100.00;102001.66;4701802;30;20065;-65
2023/01/31 09:46:52;;;;;;;23.27;6.35;;;;;;;5.51;100.00;102008.94;4718519;30;20064;-66
2023/01/31 09:49:27;;;;;;;20.50;6.25;;;;;;;5.53;100.00;102020.41;4717287;30;20148;-65
2023/01/31 09:51:59;;;;;;;22.73;7.18;;;;;;;5.65;100.00;102022.47;4717660;30;20057;-66
2023/01/31 09:54:36;;;;;;;21.23;7.05;;;;;;;5.68;100.00;102022.09;4712875;30;20421;-64
2023/01/31 09:57:14;;;;;;;20.05;6.50;;;;;;;5.60;100.00;102023.09;4696563;30;20099;-63
2023/01/31 09:59:51;;;;;;;17.77;6.55;;;;;;;5.57;100.00;102019.97;4717151;30;20061;-65
2023/01/31 10:02:22;;;;;;;;;;;;;;;5.57;100.00;102007.28;4717234;30;20053;-67
2023/01/31 10:04:57;;;;;;;21.77;6.72;;;;;;;5.59;100.00;102005.22;4719263;30;19937;-66
2023/01/31 10:07:41;;;;;;;16.20;6.07;;;;;;;5.72;100.00;102009.78;4717877;30;20288;-65
2023/01/31 10:10:14;;;;;;;16.80;5.75;;;;;;;5.69;100.00;102008.34;4718832;30;20048;-65
2023/01/31 10:12:50;;;;;;;20.23;6.88;;;;;;;5.73;100.00;102006.06;4702323;30;20053;-66
2023/01/31 10:15:21;;;;;;;17.00;6.47;;;;;;;5.74;100.00;101991.50;4718082;30;20060;-67
2023/01/31 10:17:57;;;;;;;19.55;5.95;;;;;;;5.71;100.00;102010.84;4717068;30;20507;-65
2023/01/31 10:20:37;;;;;;;15.80;5.55;;;;;;;5.76;100.00;102002.94;4717933;30;20053;-65
2023/01/31 10:23:35;;;;;;;20.10;6.47;;;;;;;5.69;100.00;102008.34;4702840;30;20053;-66
2023/01/31 10:26:06;;;;;;;17.90;5.85;;;;;;;5.64;100.00;102008.13;4717377;30;20495;-66
2023/01/31 10:29:10;;;;;;;21.85;6.30;;;;;;;5.62;100.00;102014.78;4702595;30;20056;-64
2023/01/31 10:31:52;;;;;;;22.15;6.68;;;;;;;5.66;100.00;102008.75;4669128;30;20061;-64
2023/01/31 10:34:31;;;;;;;20.95;6.72;;;;;;;5.60;100.00;102019.56;4688544;30;20073;-67
2023/01/31 10:37:14;;;;;;;23.48;7.20;;;;;;;5.62;100.00;102015.59;4716914;30;20064;-65
2023/01/31 10:40:08;;;;;;;19.13;6.68;;;;;;;5.80;100.00;102009.63;4717628;30;20088;-64
2023/01/31 10:42:38;;;;;;;18.70;6.43;;;;;;;5.76;100.00;101998.34;4717579;30;20059;-64
2023/01/31 10:45:18;;;;;;;22.25;7.90;;;;;;;5.76;100.00;102008.34;4701899;30;20164;-64
2023/01/31 10:47:58;;;;;;;24.48;8.68;;;;;;;5.64;100.00;102010.84;4718187;30;20411;-63
2023/01/31 10:50:44;;;;;;;23.77;8.88;;;;;;;5.61;100.00;102005.03;4717192;30;20063;-63
2023/01/31 10:53:54;;;;;;;23.98;9.38;;;;;;;5.60;100.00;102001.47;4717003;30;20045;-63
2023/01/31 10:56:31;;;;;;;24.20;8.45;;;;;;;5.59;100.00;102002.50;4663902;30;20062;-64
2023/01/31 10:59:01;;;;;;;26.48;10.00;;;;;;;5.59;100.00;102007.09;4664140;30;20106;-64
2023/01/31 11:01:29;;;;;;;26.08;9.88;;;;;;;5.62;100.00;101985.88;4679551;30;20065;-65
2023/01/31 11:03:59;;;;;;;28.52;10.18;;;;;;;5.66;100.00;101987.13;4702347;30;20411;-64
2023/01/31 11:06:27;;;;;;;28.25;10.65;;;;;;;5.70;100.00;101990.25;4681051;30;20181;-62
2023/01/31 11:08:59;;;;;;;28.05;11.20;;;;;;;5.69;100.00;101977.75;4713594;30;20045;-63
2023/01/31 11:11:28;;;;;;;24.00;9.82;;;;;;;5.70;100.00;101965.91;4686829;30;20068;-63
2023/01/31 11:13:59;;;;;;;22.33;9.50;;;;;;;5.71;100.00;101970.28;4717566;30;20049;-64
2023/01/31 11:16:46;;;;;;;27.02;9.60;;;;;;;5.75;100.00;101956.16;4714992;30;20415;-65
2023/01/31 11:19:22;;;;;;;20.00;7.80;;;;;;;5.82;100.00;101952.59;4700371;30;20488;-62
2023/01/31 11:21:53;;;;;;;21.00;9.07;;;;;;;5.87;100.00;101956.34;4701586;30;20123;-63
2023/01/31 11:24:23;;;;;;;21.98;8.75;;;;;;;5.90;100.00;101939.69;4715731;30;20060;-63
2023/01/31 11:27:12;;;;;;;25.90;9.18;;;;;;;5.93;100.00;101957.38;4687057;30;20414;-63
2023/01/31 11:29:48;;;;;;;28.00;10.05;;;;;;;5.94;100.00;101946.41;4716389;30;20053;-64
2023/01/31 11:32:23;;;;;;;24.00;8.55;;;;;;;5.91;100.00;101951.34;4716976;30;20045;-63
2023/01/31 11:35:05;;;;;;;24.58;8.90;;;;;;;5.90;100.00;101950.53;4716602;30;20140;-63
2023/01/31 11:37:33;;;;;;;23.65;8.80;;;;;;;5.90;100.00;101945.09;4715019;30;20461;-64
2023/01/31 11:40:18;;;;;;;22.13;7.63;;;;;;;5.91;100.00;101949.47;4716410;30;20502;-62
2023/01/31 11:42:59;;;;;;;26.02;8.73;;;;;;;5.95;100.00;101948.03;4702274;30;20074;-62
2023/01/31 11:45:29;;;;;;;23.88;8.18;;;;;;;5.96;100.00;101941.63;4719559;30;20455;-63